createdAt,value
2023-11-24T00:01:52.925Z,6.49
2023-11-24T00:04:19.259Z,6.47
2023-11-24T00:06:45.618Z,6.52
2023-11-24T00:09:11.962Z,6.47
2023-11-24T00:11:38.198Z,6.38
2023-11-24T00:14:04.488Z,6.48
2023-11-24T00:16:30.855Z,6.49
2023-11-24T00:18:57.161Z,6.49
2023-11-24T00:21:23.453Z,6.53
2023-11-24T00:23:49.755Z,6.59
2023-11-24T00:26:16.059Z,6.45
2023-11-24T00:28:42.306Z,6.47
2023-11-24T00:31:08.595Z,6.54
2023-11-24T00:33:34.953Z,6.58
2023-11-24T00:36:01.336Z,6.46
2023-11-24T00:38:27.590Z,6.49
2023-11-24T00:40:53.842Z,6.43
2023-11-24T00:43:20.089Z,6.34
2023-11-24T00:45:46.492Z,6.11
2023-11-24T00:48:12.727Z,6.14
2023-11-24T00:50:38.988Z,6.10
2023-11-24T00:53:05.308Z,6.01
2023-11-24T00:55:31.576Z,6.00
2023-11-24T00:57:58.275Z,5.96
2023-11-24T01:00:24.661Z,5.98
2023-11-24T01:02:51.041Z,5.95
2023-11-24T01:05:17.342Z,5.95
2023-11-24T01:07:43.592Z,5.84
2023-11-24T01:10:09.849Z,5.84
2023-11-24T01:12:36.149Z,5.78
2023-11-24T01:15:02.470Z,5.74
2023-11-24T01:17:28.778Z,5.78
2023-11-24T01:19:55.123Z,5.71
2023-11-24T01:22:21.428Z,5.73
2023-11-24T01:24:47.658Z,5.61
2023-11-24T01:27:13.908Z,5.61
2023-11-24T01:29:40.173Z,5.46
2023-11-24T01:32:06.485Z,5.35
2023-11-24T01:34:32.819Z,5.23
2023-11-24T01:36:59.337Z,5.23
2023-11-24T01:39:25.662Z,5.23
2023-11-24T01:41:51.941Z,5.18
2023-11-24T01:44:18.208Z,5.17
2023-11-24T01:46:44.475Z,5.12
2023-11-24T01:49:10.721Z,5.15
2023-11-24T01:51:37.073Z,5.04
2023-11-24T01:54:03.324Z,5.04
2023-11-24T01:56:29.588Z,4.97
2023-11-24T01:58:55.814Z,4.98
2023-11-24T02:01:22.100Z,4.97
2023-11-24T02:03:48.456Z,4.97
2023-11-24T02:06:14.750Z,4.96
2023-11-24T02:08:41.033Z,4.92
2023-11-24T02:11:07.257Z,4.89
2023-11-24T02:13:33.488Z,4.83
2023-11-24T02:15:59.806Z,4.79
2023-11-24T02:18:26.164Z,4.76
2023-11-24T02:20:52.724Z,4.78
2023-11-24T02:23:19.009Z,4.75
2023-11-24T02:25:45.280Z,4.73
2023-11-24T02:28:11.508Z,4.68
2023-11-24T02:30:37.915Z,4.57
2023-11-24T02:33:04.247Z,4.67
2023-11-24T02:35:30.672Z,4.56
2023-11-24T02:37:56.970Z,4.58
2023-11-24T02:40:23.222Z,4.74
2023-11-24T02:42:49.463Z,4.60
2023-11-24T02:45:15.769Z,4.49
2023-11-24T02:47:42.109Z,4.49
2023-11-24T02:50:08.378Z,4.58
2023-11-24T02:52:34.607Z,4.53
2023-11-24T02:55:00.876Z,4.44
2023-11-24T02:57:27.167Z,4.50
2023-11-24T02:59:53.416Z,4.45
2023-11-24T03:02:19.777Z,4.50
2023-11-24T03:04:46.219Z,4.58
2023-11-24T03:07:12.449Z,4.50
2023-11-24T03:09:38.752Z,4.55
2023-11-24T03:12:05.033Z,4.56
2023-11-24T03:14:31.338Z,4.45
2023-11-24T03:16:57.643Z,4.48
2023-11-24T03:19:23.955Z,4.60
2023-11-24T03:21:50.270Z,4.52
2023-11-24T03:24:16.578Z,4.53
2023-11-24T03:26:42.895Z,4.60
2023-11-24T03:29:09.232Z,4.57
2023-11-24T03:31:35.519Z,4.47
2023-11-24T03:34:01.782Z,4.53
2023-11-24T03:36:28.071Z,4.62
2023-11-24T03:38:54.306Z,4.50
2023-11-24T03:41:20.570Z,4.55
2023-11-24T03:43:46.840Z,4.52
2023-11-24T03:46:13.152Z,4.54
2023-11-24T03:48:39.475Z,4.59
2023-11-24T03:51:05.772Z,4.61
2023-11-24T03:53:32.031Z,4.65
2023-11-24T03:55:58.317Z,4.60
2023-11-24T03:58:24.583Z,4.56
2023-11-24T04:00:50.926Z,4.53
2023-11-24T04:03:17.291Z,4.56
2023-11-24T04:05:43.586Z,4.56
2023-11-24T04:08:09.892Z,4.57
2023-11-24T04:10:36.189Z,4.58
2023-11-24T04:13:02.548Z,4.62
2023-11-24T04:15:28.895Z,4.50
2023-11-24T04:17:58.647Z,4.46
2023-11-24T04:20:25.020Z,4.38
2023-11-24T04:22:51.285Z,4.50
2023-11-24T04:25:17.546Z,4.49
2023-11-24T04:27:43.922Z,4.61
2023-11-24T04:30:10.338Z,4.66
2023-11-24T04:32:36.559Z,4.57
2023-11-24T04:35:02.900Z,4.54
2023-11-24T04:37:29.148Z,4.61
2023-11-24T04:39:55.466Z,4.36
2023-11-24T04:42:21.735Z,4.28
2023-11-24T04:44:47.992Z,4.34
2023-11-24T04:47:14.222Z,4.35
2023-11-24T04:49:40.554Z,4.42
2023-11-24T04:52:06.872Z,4.47
2023-11-24T04:54:33.164Z,4.42
2023-11-24T04:56:59.470Z,4.38
2023-11-24T04:59:25.762Z,4.43
2023-11-24T05:01:52.141Z,4.54
2023-11-24T05:04:18.618Z,4.61
2023-11-24T05:06:44.951Z,4.63
2023-11-24T05:09:11.212Z,4.52
2023-11-24T05:11:37.488Z,4.55
2023-11-24T05:14:03.775Z,4.55
2023-11-24T05:16:30.085Z,4.66
2023-11-24T05:18:56.373Z,4.72
2023-11-24T05:21:22.682Z,4.67
2023-11-24T05:23:48.930Z,4.64
2023-11-24T05:26:15.218Z,4.52
2023-11-24T05:28:41.457Z,3.81
2023-11-24T05:31:07.774Z,3.40
2023-11-24T05:33:34.192Z,3.11
2023-11-24T05:36:00.585Z,2.99
2023-11-24T05:38:26.851Z,2.99
2023-11-24T05:40:53.090Z,3.01
2023-11-24T05:43:19.400Z,3.00
2023-11-24T05:45:45.807Z,3.07
2023-11-24T05:48:12.108Z,3.10
2023-11-24T05:50:38.330Z,3.05
2023-11-24T05:53:04.606Z,3.10
2023-11-24T05:55:30.875Z,3.09
2023-11-24T05:57:57.159Z,3.01
2023-11-24T06:00:23.438Z,2.96
2023-11-24T06:02:49.699Z,2.96
2023-11-24T06:05:16.129Z,3.05
2023-11-24T06:07:42.490Z,2.99
2023-11-24T06:10:08.942Z,3.09
2023-11-24T06:12:35.285Z,3.13
2023-11-24T06:15:01.587Z,3.19
2023-11-24T06:17:27.854Z,3.24
2023-11-24T06:19:54.112Z,3.24
2023-11-24T06:22:20.472Z,3.18
2023-11-24T06:24:46.802Z,3.22
2023-11-24T06:27:13.069Z,3.26
2023-11-24T06:29:39.359Z,3.32
2023-11-24T06:32:05.625Z,3.37
2023-11-24T06:34:31.990Z,3.40
2023-11-24T06:36:58.373Z,3.50
2023-11-24T06:39:24.853Z,3.41
2023-11-24T06:41:51.173Z,3.45
2023-11-24T06:44:17.491Z,3.56
2023-11-24T06:46:43.809Z,3.46
2023-11-24T06:49:10.260Z,3.53
2023-11-24T06:51:36.648Z,3.52
2023-11-24T06:54:02.928Z,3.54
2023-11-24T06:56:29.206Z,3.51
2023-11-24T06:58:55.512Z,3.55
2023-11-24T07:01:21.943Z,3.51
2023-11-24T07:03:48.322Z,3.58
2023-11-24T07:06:14.700Z,3.59
2023-11-24T07:08:41.003Z,3.72
2023-11-24T07:11:07.349Z,3.68
2023-11-24T07:13:33.661Z,3.69
2023-11-24T07:16:00.006Z,3.72
2023-11-24T07:18:26.396Z,3.86
2023-11-24T07:20:52.905Z,3.82
2023-11-24T07:23:19.152Z,3.84
2023-11-24T07:25:45.383Z,3.80
2023-11-24T07:28:11.693Z,3.81
2023-11-24T07:30:38.001Z,3.81
2023-11-24T07:33:04.392Z,3.57
2023-11-24T07:35:30.704Z,3.54
2023-11-24T07:37:58.166Z,3.58
2023-11-24T07:40:24.533Z,3.50
2023-11-24T07:42:50.911Z,3.42
2023-11-24T07:45:17.320Z,3.54
2023-11-24T07:47:43.649Z,3.59
2023-11-24T07:50:09.946Z,3.42
2023-11-24T07:52:37.767Z,3.56
2023-11-24T07:55:04.422Z,3.54
2023-11-24T07:57:30.739Z,3.59
2023-11-24T07:59:57.009Z,3.49
2023-11-24T08:02:23.402Z,3.49
2023-11-24T08:04:49.800Z,3.48
2023-11-24T08:07:16.193Z,3.52
2023-11-24T08:09:42.534Z,3.37
2023-11-24T08:12:10.501Z,3.44
2023-11-24T08:14:37.903Z,3.47
2023-11-24T08:17:04.237Z,3.40
2023-11-24T08:19:30.562Z,3.42
2023-11-24T08:21:56.847Z,3.34
2023-11-24T08:24:23.207Z,3.23
2023-11-24T08:26:49.508Z,3.38
2023-11-24T08:29:16.907Z,3.45
2023-11-24T08:31:43.225Z,3.34
2023-11-24T08:34:09.580Z,3.42
2023-11-24T08:36:35.905Z,3.28
2023-11-24T08:39:02.220Z,3.38
2023-11-24T08:41:35.456Z,3.43
2023-11-24T08:44:06.709Z,3.44
2023-11-24T08:46:33.024Z,3.27
2023-11-24T08:48:59.332Z,3.30
2023-11-24T08:51:25.604Z,3.40
2023-11-24T08:53:51.874Z,3.49
2023-11-24T08:56:18.165Z,3.43
2023-11-24T08:58:44.389Z,3.43
2023-11-24T09:01:10.707Z,3.66
2023-11-24T09:03:37.062Z,3.59
2023-11-24T09:06:03.393Z,3.53
2023-11-24T09:08:29.703Z,3.59
2023-11-24T09:10:56.059Z,3.54
2023-11-24T09:13:22.415Z,3.78
2023-11-24T09:15:48.852Z,3.80
2023-11-24T09:18:15.148Z,3.75
2023-11-24T09:20:41.455Z,3.55
2023-11-24T09:23:07.775Z,3.78
2023-11-24T09:25:34.078Z,3.68
2023-11-24T09:28:00.397Z,3.52
2023-11-24T09:30:26.817Z,3.70
2023-11-24T09:32:53.113Z,3.52
2023-11-24T09:35:19.471Z,3.41
2023-11-24T09:37:45.810Z,3.44
2023-11-24T09:40:12.111Z,3.42
2023-11-24T09:42:38.506Z,3.42
2023-11-24T09:45:04.825Z,3.46
2023-11-24T09:47:31.174Z,4.29
2023-11-24T09:49:57.557Z,4.49
2023-11-24T09:52:23.809Z,4.10
2023-11-24T09:54:50.122Z,4.06
2023-11-24T09:57:16.427Z,3.87
2023-11-24T09:59:42.737Z,3.77
2023-11-24T10:02:09.125Z,3.56
2023-11-24T10:04:35.863Z,3.66
2023-11-24T10:07:02.250Z,3.67
2023-11-24T10:09:28.538Z,3.58
2023-11-24T10:11:54.812Z,3.54
2023-11-24T10:14:21.136Z,3.50
2023-11-24T10:16:47.422Z,3.41
2023-11-24T10:19:13.827Z,3.41
2023-11-24T10:21:40.125Z,3.68
2023-11-24T10:24:06.406Z,3.53
2023-11-24T10:26:32.656Z,3.51
2023-11-24T10:28:59.089Z,3.56
2023-11-24T10:31:25.506Z,3.59
2023-11-24T10:33:52.055Z,3.47
2023-11-24T10:36:18.527Z,3.45
2023-11-24T10:38:44.826Z,3.36
2023-11-24T10:41:11.117Z,3.44
2023-11-24T10:43:40.434Z,3.60
2023-11-24T10:46:10.029Z,3.42
2023-11-24T10:48:37.663Z,3.44
2023-11-24T10:51:03.928Z,3.54
2023-11-24T10:53:30.225Z,3.41
2023-11-24T10:55:56.494Z,3.40
2023-11-24T10:58:22.800Z,3.35
2023-11-24T11:00:49.235Z,3.19
2023-11-24T11:03:15.528Z,3.04
2023-11-24T11:05:41.853Z,2.57
2023-11-24T11:08:08.113Z,2.35
2023-11-24T11:10:34.417Z,2.26
2023-11-24T11:13:00.691Z,2.44
2023-11-24T11:15:27.095Z,2.55
2023-11-24T11:17:56.115Z,2.62
2023-11-24T11:20:22.387Z,2.56
2023-11-24T11:22:48.771Z,2.76
2023-11-24T11:25:15.185Z,2.90
2023-11-24T11:27:41.503Z,2.96
2023-11-24T11:30:07.799Z,3.01
2023-11-24T11:32:34.184Z,2.89
2023-11-24T11:35:00.479Z,2.65
2023-11-24T11:37:26.791Z,2.69
2023-11-24T11:39:53.125Z,2.54
2023-11-24T11:42:20.099Z,2.55
2023-11-24T11:44:46.356Z,2.52
2023-11-24T11:47:12.628Z,2.63
2023-11-24T11:49:38.900Z,2.66
2023-11-24T11:52:05.227Z,2.75
2023-11-24T11:54:31.518Z,2.98
2023-11-24T11:56:57.781Z,3.35
2023-11-24T11:59:24.102Z,4.15
2023-11-24T12:01:50.506Z,4.38
2023-11-24T12:04:16.846Z,4.36
2023-11-24T12:06:43.173Z,4.57
2023-11-24T12:09:09.431Z,4.64
2023-11-24T12:11:35.689Z,4.68
2023-11-24T12:14:01.961Z,5.64
2023-11-24T12:16:28.452Z,5.73
2023-11-24T12:18:54.752Z,5.28
2023-11-24T12:21:21.106Z,5.02
2023-11-24T12:23:47.355Z,4.88
2023-11-24T12:26:13.687Z,4.84
2023-11-24T12:28:40.006Z,4.21
2023-11-24T12:31:06.322Z,3.99
2023-11-24T12:33:32.771Z,3.67
2023-11-24T12:35:59.030Z,3.48
2023-11-24T12:38:25.325Z,3.35
2023-11-24T12:40:51.680Z,3.11
2023-11-24T12:43:18.105Z,3.15
2023-11-24T12:45:44.911Z,3.07
2023-11-24T12:48:11.221Z,3.06
2023-11-24T12:50:37.609Z,3.10
2023-11-24T12:53:03.889Z,3.16
2023-11-24T12:55:30.169Z,3.22
2023-11-24T12:57:58.385Z,3.40
2023-11-24T13:00:24.735Z,3.51
2023-11-24T13:02:51.044Z,3.73
2023-11-24T13:05:18.175Z,4.34
2023-11-24T13:07:44.685Z,4.46
2023-11-24T13:10:11.020Z,4.09
2023-11-24T13:12:37.325Z,3.95
2023-11-24T13:15:03.634Z,3.92
2023-11-24T13:17:29.902Z,4.01
2023-11-24T13:19:56.262Z,4.03
2023-11-24T13:22:23.017Z,3.99
2023-11-24T13:24:49.434Z,3.97
2023-11-24T13:27:15.695Z,3.76
2023-11-24T13:29:42.022Z,3.63
2023-11-24T13:32:08.305Z,3.55
2023-11-24T13:34:34.758Z,3.78
2023-11-24T13:37:01.226Z,3.91
2023-11-24T13:39:27.483Z,3.86
2023-11-24T13:41:53.811Z,3.68
2023-11-24T13:44:20.096Z,3.37
2023-11-24T13:46:46.410Z,3.38
2023-11-24T13:49:12.745Z,3.39
2023-11-24T13:51:39.086Z,3.28
2023-11-24T13:54:05.433Z,3.43
2023-11-24T13:56:31.738Z,3.52
2023-11-24T13:58:58.072Z,3.62
2023-11-24T14:01:24.512Z,3.30
2023-11-24T14:03:51.052Z,3.18
2023-11-24T14:06:17.394Z,3.10
2023-11-24T14:08:43.619Z,2.98
2023-11-24T14:11:09.879Z,3.06
2023-11-24T14:13:36.225Z,2.76
2023-11-24T14:16:02.564Z,2.81
2023-11-24T14:18:28.830Z,2.87
2023-11-24T14:20:55.090Z,2.77
2023-11-24T14:23:21.330Z,2.59
2023-11-24T14:25:47.590Z,2.53
2023-11-24T14:28:15.027Z,2.46
2023-11-24T14:30:42.194Z,2.49
2023-11-24T14:33:08.450Z,2.57
2023-11-24T14:35:34.743Z,2.65
2023-11-24T14:38:01.040Z,2.65
2023-11-24T14:40:27.416Z,2.64
2023-11-24T14:42:53.696Z,2.55
2023-11-24T14:45:19.998Z,2.59
2023-11-24T14:47:46.317Z,2.45
2023-11-24T14:50:12.611Z,2.43
2023-11-24T14:52:38.928Z,2.46
2023-11-24T14:55:05.374Z,2.49
2023-11-24T14:57:31.799Z,2.31
2023-11-24T14:59:58.076Z,2.32
2023-11-24T15:02:24.429Z,2.40
2023-11-24T15:04:50.769Z,2.21
2023-11-24T15:07:17.094Z,2.11
2023-11-24T15:09:43.527Z,2.18
2023-11-24T15:12:09.835Z,2.08
2023-11-24T15:14:36.083Z,2.03
2023-11-24T15:17:02.426Z,2.05
2023-11-24T15:19:28.868Z,2.04
2023-11-24T15:21:55.250Z,1.96
2023-11-24T15:24:21.562Z,1.93
2023-11-24T15:26:47.889Z,1.96
2023-11-24T15:29:14.163Z,1.95
2023-11-24T15:31:40.572Z,2.00
2023-11-24T15:34:06.931Z,1.98
2023-11-24T15:36:35.218Z,1.89
2023-11-24T15:39:01.534Z,1.89
2023-11-24T15:41:27.790Z,1.95
2023-11-24T15:43:54.070Z,1.98
2023-11-24T15:46:20.406Z,1.93
2023-11-24T15:48:46.758Z,1.93
2023-11-24T15:51:13.102Z,1.78
2023-11-24T15:53:39.373Z,1.84
2023-11-24T15:56:05.648Z,1.80
2023-11-24T15:58:31.964Z,1.88
2023-11-24T16:00:58.505Z,1.81
2023-11-24T16:03:25.041Z,1.83
2023-11-24T16:05:51.378Z,1.76
2023-11-24T16:08:17.694Z,1.87
2023-11-24T16:10:46.832Z,1.74
2023-11-24T16:13:13.532Z,1.70
2023-11-24T16:15:39.916Z,1.75
2023-11-24T16:18:07.211Z,1.74
2023-11-24T16:20:33.597Z,1.86
2023-11-24T16:22:59.921Z,1.72
2023-11-24T16:25:26.223Z,1.71
2023-11-24T16:27:52.500Z,1.70
2023-11-24T16:30:18.839Z,1.69
2023-11-24T16:32:45.187Z,1.59
2023-11-24T16:35:11.567Z,1.75
2023-11-24T16:37:37.944Z,1.72
2023-11-24T16:40:04.327Z,1.77
2023-11-24T16:42:30.717Z,1.74
2023-11-24T16:44:57.075Z,1.72
2023-11-24T16:47:23.392Z,1.65
2023-11-24T16:49:49.784Z,1.64
2023-11-24T16:52:16.094Z,1.63
2023-11-24T16:54:42.372Z,1.64
2023-11-24T16:57:08.656Z,1.66
2023-11-24T16:59:34.969Z,1.68
2023-11-24T17:02:01.341Z,1.65
2023-11-24T17:04:27.674Z,1.54
2023-11-24T17:06:54.020Z,1.56
2023-11-24T17:09:20.526Z,1.58
2023-11-24T17:11:46.813Z,1.58
2023-11-24T17:14:13.116Z,1.64
2023-11-24T17:16:39.518Z,1.56
2023-11-24T17:19:05.843Z,1.72
2023-11-24T17:21:32.162Z,1.54
2023-11-24T17:23:58.601Z,1.57
2023-11-24T17:26:26.130Z,1.50
2023-11-24T17:28:52.549Z,1.53
2023-11-24T17:31:18.876Z,1.42
2023-11-24T17:33:45.189Z,1.51
2023-11-24T17:36:11.491Z,1.62
2023-11-24T17:38:37.839Z,1.56
2023-11-24T17:41:04.168Z,1.59
2023-11-24T17:43:30.560Z,1.54
2023-11-24T17:45:56.932Z,1.45
2023-11-24T17:48:23.260Z,1.48
2023-11-24T17:50:49.612Z,1.43
2023-11-24T17:53:15.920Z,1.42
2023-11-24T17:55:42.217Z,1.49
2023-11-24T17:58:08.528Z,1.43
2023-11-24T18:00:34.875Z,1.44
2023-11-24T18:03:01.241Z,1.41
2023-11-24T18:05:27.478Z,1.47
2023-11-24T18:07:58.445Z,1.51
2023-11-24T18:10:24.805Z,1.38
2023-11-24T18:12:51.187Z,1.55
2023-11-24T18:15:17.541Z,1.52
2023-11-24T18:17:43.885Z,1.45
2023-11-24T18:20:12.666Z,1.56
2023-11-24T18:22:40.698Z,1.52
2023-11-24T18:25:07.131Z,1.46
2023-11-24T18:27:33.494Z,1.53
2023-11-24T18:29:59.840Z,1.66
2023-11-24T18:32:26.129Z,1.60
2023-11-24T18:34:52.414Z,1.62
2023-11-24T18:37:18.740Z,1.68
2023-11-24T18:39:44.984Z,1.72
2023-11-24T18:42:11.284Z,1.66
2023-11-24T18:44:37.573Z,1.48
2023-11-24T18:47:03.835Z,1.45
2023-11-24T18:49:30.183Z,1.53
2023-11-24T18:51:56.481Z,1.48
2023-11-24T18:54:22.739Z,1.56
2023-11-24T18:56:49.016Z,1.60
2023-11-24T18:59:15.360Z,1.50
2023-11-24T19:01:41.768Z,1.40
2023-11-24T19:04:08.215Z,1.41
2023-11-24T19:06:34.585Z,1.31
2023-11-24T19:09:00.922Z,1.29
2023-11-24T19:11:27.252Z,1.38
2023-11-24T19:13:53.554Z,1.42
2023-11-24T19:16:19.959Z,1.40
2023-11-24T19:18:46.281Z,1.38
2023-11-24T19:21:12.609Z,1.41
2023-11-24T19:23:38.943Z,1.43
2023-11-24T19:26:05.289Z,1.46
2023-11-24T19:28:31.703Z,1.40
2023-11-24T19:30:58.039Z,1.24
2023-11-24T19:33:24.387Z,1.17
2023-11-24T19:35:50.683Z,1.25
2023-11-24T19:38:16.990Z,1.32
2023-11-24T19:40:43.298Z,1.26
2023-11-24T19:43:09.656Z,1.24
2023-11-24T19:45:35.968Z,1.15
2023-11-24T19:48:02.273Z,1.18
2023-11-24T19:50:28.568Z,1.08
2023-11-24T19:52:54.879Z,1.10
2023-11-24T19:55:21.231Z,0.98
2023-11-24T19:57:47.531Z,0.97
2023-11-24T20:00:14.114Z,0.99
2023-11-24T20:02:40.627Z,1.00
2023-11-24T20:05:07.171Z,1.01
2023-11-24T20:07:33.717Z,1.03
2023-11-24T20:09:59.985Z,1.04
2023-11-24T20:12:26.275Z,1.00
2023-11-24T20:14:52.531Z,0.98
2023-11-24T20:17:18.866Z,1.03
2023-11-24T20:19:45.074Z,1.01
2023-11-24T20:22:11.435Z,1.00
2023-11-24T20:24:37.740Z,1.10
2023-11-24T20:27:04.040Z,1.12
2023-11-24T20:29:30.414Z,1.07
2023-11-24T20:31:56.733Z,0.98
2023-11-24T20:34:23.200Z,1.00
2023-11-24T20:36:49.695Z,1.10
2023-11-24T20:39:17.021Z,0.96
2023-11-24T20:41:43.538Z,1.05
2023-11-24T20:44:09.894Z,1.05
2023-11-24T20:46:36.200Z,0.98
2023-11-24T20:49:02.617Z,0.87
2023-11-24T20:51:28.997Z,0.89
2023-11-24T20:53:55.328Z,0.90
2023-11-24T20:56:21.656Z,0.82
2023-11-24T20:58:47.951Z,0.91
2023-11-24T21:01:14.396Z,0.91
2023-11-24T21:03:40.739Z,0.82
2023-11-24T21:06:07.005Z,0.74
2023-11-24T21:08:33.332Z,0.86
2023-11-24T21:10:59.669Z,0.96
2023-11-24T21:13:26.042Z,0.99
2023-11-24T21:15:52.399Z,0.83
2023-11-24T21:18:18.937Z,0.85
2023-11-24T21:20:45.378Z,0.92
2023-11-24T21:23:11.645Z,1.02
2023-11-24T21:25:38.036Z,0.98
2023-11-24T21:28:04.427Z,1.14
2023-11-24T21:30:30.749Z,1.08
2023-11-24T21:32:58.939Z,0.96
2023-11-24T21:35:25.256Z,1.16
2023-11-24T21:37:51.594Z,1.23
2023-11-24T21:40:17.989Z,1.06
2023-11-24T21:42:44.330Z,0.96
2023-11-24T21:45:10.607Z,0.81
2023-11-24T21:47:36.972Z,0.89
2023-11-24T21:50:03.292Z,0.99
2023-11-24T21:52:29.715Z,0.94
2023-11-24T21:54:56.069Z,1.00
2023-11-24T21:57:22.343Z,1.07
2023-11-24T21:59:48.726Z,1.04
2023-11-24T22:02:15.172Z,1.01
2023-11-24T22:04:41.575Z,1.07
2023-11-24T22:07:07.956Z,1.03
2023-11-24T22:09:34.261Z,0.98
2023-11-24T22:12:00.522Z,0.96
2023-11-24T22:14:26.871Z,0.87
2023-11-24T22:16:53.271Z,0.90
2023-11-24T22:19:19.679Z,0.90
2023-11-24T22:21:45.954Z,1.02
2023-11-24T22:24:12.265Z,1.01
2023-11-24T22:26:38.579Z,1.05
2023-11-24T22:29:04.854Z,0.96
2023-11-24T22:31:31.314Z,0.95
2023-11-24T22:33:57.840Z,0.98
2023-11-24T22:36:24.135Z,0.94
2023-11-24T22:38:50.510Z,0.94
2023-11-24T22:41:17.202Z,0.97
2023-11-24T22:43:43.482Z,1.03
2023-11-24T22:46:09.893Z,1.08
2023-11-24T22:48:36.255Z,1.02
2023-11-24T22:51:02.576Z,1.04
2023-11-24T22:53:28.902Z,0.95
2023-11-24T22:55:55.227Z,0.91
2023-11-24T22:58:21.586Z,0.84
2023-11-24T23:00:47.922Z,0.79
2023-11-24T23:03:14.491Z,0.82
2023-11-24T23:05:40.893Z,0.86
2023-11-24T23:08:07.249Z,0.93
2023-11-24T23:10:33.546Z,0.86
2023-11-24T23:12:59.939Z,0.89
2023-11-24T23:15:26.245Z,0.95
2023-11-24T23:17:52.578Z,0.92
2023-11-24T23:20:18.859Z,0.90
2023-11-24T23:22:45.149Z,0.73
2023-11-24T23:25:11.483Z,0.69
2023-11-24T23:27:37.987Z,0.76
2023-11-24T23:30:04.264Z,0.74
2023-11-24T23:32:33.688Z,0.62
2023-11-24T23:34:59.988Z,0.71
2023-11-24T23:37:26.337Z,0.70
2023-11-24T23:39:52.709Z,0.60
2023-11-24T23:42:19.032Z,0.68
2023-11-24T23:44:45.338Z,0.70
2023-11-24T23:47:11.767Z,0.69
2023-11-24T23:49:38.157Z,0.72
2023-11-24T23:52:04.444Z,0.68
2023-11-24T23:54:30.723Z,0.62
2023-11-24T23:56:57.582Z,0.67
2023-11-24T23:59:23.852Z,0.57
